Time;durP1;ratioP1;P1;durP2;ratioP2;P2;SDS_P1;SDS_P2;PMS_P1;PMS_P2;Temp;Humidity;BMP_temperature;BMP_pressure;BME280_temperature;BME280_humidity;BME280_pressure;Samples;Min_cycle;Max_cycle;Signal;HPM_P1;HPM_P2
2023/01/20 00:01:49;;;;;;;0.20;0.20;;;;;;;;;;4930437;28;20592;-80
2023/01/20 00:04:18;;;;;;;0.10;0.10;;;;;;;;;;4933716;28;20154;-80
2023/01/20 00:06:44;;;;;;;0.20;0.20;;;;;;;;;;4931644;28;20181;-78
2023/01/20 00:09:14;;;;;;;0.20;0.20;;;;;;;;;;4922979;28;20051;-80
2023/01/20 00:11:40;;;;;;;0.20;0.20;;;;;;;;;;4930268;28;20078;-80
2023/01/20 00:14:06;;;;;;;0.20;0.20;;;;;;;;;;4935116;28;20058;-81
2023/01/20 00:16:32;;;;;;;0.20;0.20;;;;;;;;;;4935034;28;20137;-78
2023/01/20 00:18:58;;;;;;;0.20;0.20;;;;;;;;;;4936247;28;20051;-78
2023/01/20 00:21:24;;;;;;;0.20;0.20;;;;;;;;;;4934942;28;20066;-78
2023/01/20 00:24:06;;;;;;;0.20;0.20;;;;;;;;;;4915946;28;20166;-77
2023/01/20 00:26:32;;;;;;;0.20;0.20;;;;;;;;;;4928200;28;20142;-77
2023/01/20 00:28:58;;;;;;;0.20;0.20;;;;;;;;;;4934170;28;20379;-78
2023/01/20 00:31:25;;;;;;;0.20;0.20;;;;;;;;;;4932603;28;20101;-78
2023/01/20 00:33:52;;;;;;;0.20;0.20;;;;;;;;;;4932469;28;20387;-78
2023/01/20 00:36:19;;;;;;;0.17;0.17;;;;;;;;;;4933278;28;20498;-78
2023/01/20 00:38:45;;;;;;;0.20;0.20;;;;;;;;;;4933267;28;20418;-78
2023/01/20 00:41:11;;;;;;;0.20;0.20;;;;;;;;;;4922719;28;20093;-78
2023/01/20 00:43:37;;;;;;;0.20;0.20;;;;;;;;;;4929909;28;20097;-79
2023/01/20 00:46:04;;;;;;;0.20;0.20;;;;;;;;;;4931641;28;20486;-78
2023/01/20 00:48:30;;;;;;;0.20;0.20;;;;;;;;;;4932534;28;20051;-77
2023/01/20 00:50:56;;;;;;;0.20;0.20;;;;;;;;;;4931629;28;20109;-77
2023/01/20 00:53:22;;;;;;;0.20;0.20;;;;;;;;;;4929918;28;20060;-78
2023/01/20 00:55:49;;;;;;;0.20;0.20;;;;;;;;;;4929401;28;20074;-77
2023/01/20 00:58:15;;;;;;;0.20;0.20;;;;;;;;;;4927220;28;20826;-79
2023/01/20 01:00:41;;;;;;;0.15;0.15;;;;;;;;;;4930044;28;20316;-77
2023/01/20 01:03:09;;;;;;;0.20;0.20;;;;;;;;;;4929898;28;20113;-77
2023/01/20 01:05:35;;;;;;;0.20;0.20;;;;;;;;;;4930772;28;20051;-80
2023/01/20 01:08:01;;;;;;;0.20;0.20;;;;;;;;;;4930243;28;20043;-78
2023/01/20 01:10:27;;;;;;;0.20;0.20;;;;;;;;;;4934631;28;20055;-77
2023/01/20 01:12:53;;;;;;;0.20;0.20;;;;;;;;;;4933999;28;20047;-77
2023/01/20 01:15:19;;;;;;;0.20;0.20;;;;;;;;;;4930532;28;20059;-77
2023/01/20 01:17:45;;;;;;;0.20;0.20;;;;;;;;;;4932656;28;20059;-78
2023/01/20 01:20:12;;;;;;;0.10;0.10;;;;;;;;;;4932133;28;20059;-77
2023/01/20 01:22:39;;;;;;;0.20;0.20;;;;;;;;;;4933881;28;20377;-80
2023/01/20 01:25:05;;;;;;;0.20;0.20;;;;;;;;;;4933639;28;20494;-77
2023/01/20 01:27:31;;;;;;;0.20;0.20;;;;;;;;;;4926063;28;20506;-78
2023/01/20 01:29:57;;;;;;;0.20;0.20;;;;;;;;;;4929585;28;20055;-77
2023/01/20 01:32:23;;;;;;;0.20;0.20;;;;;;;;;;4921924;28;20521;-78
2023/01/20 01:34:49;;;;;;;0.20;0.20;;;;;;;;;;4926156;28;20047;-78
2023/01/20 01:37:18;;;;;;;0.20;0.20;;;;;;;;;;4932157;28;20066;-77
2023/01/20 01:39:44;;;;;;;0.20;0.20;;;;;;;;;;4933556;28;20043;-77
2023/01/20 01:42:14;;;;;;;0.20;0.20;;;;;;;;;;4933378;28;20049;-77
2023/01/20 01:44:59;;;;;;;0.20;0.20;;;;;;;;;;4931631;28;20050;-77
2023/01/20 01:47:25;;;;;;;0.10;0.10;;;;;;;;;;4930899;28;20109;-77
2023/01/20 01:49:51;;;;;;;0.20;0.20;;;;;;;;;;4926304;28;20046;-77
2023/01/20 01:52:19;;;;;;;0.20;0.20;;;;;;;;;;4924666;28;20066;-80
2023/01/20 01:54:47;;;;;;;0.10;0.10;;;;;;;;;;4929137;28;20043;-78
2023/01/20 01:57:14;;;;;;;0.20;0.20;;;;;;;;;;4933113;28;20259;-81
2023/01/20 01:59:40;;;;;;;0.17;0.17;;;;;;;;;;4932683;28;20896;-77
2023/01/20 02:02:06;;;;;;;0.20;0.20;;;;;;;;;;4933213;28;20657;-77
2023/01/20 02:04:33;;;;;;;0.20;0.20;;;;;;;;;;4934384;28;20540;-80
2023/01/20 02:07:02;;;;;;;0.20;0.20;;;;;;;;;;4932483;28;20321;-76
2023/01/20 02:09:29;;;;;;;0.20;0.20;;;;;;;;;;4931342;28;20061;-77
2023/01/20 02:11:57;;;;;;;0.20;0.20;;;;;;;;;;4932050;28;20972;-78
2023/01/20 02:14:25;;;;;;;0.10;0.10;;;;;;;;;;4929884;28;20404;-77
2023/01/20 02:16:59;;;;;;;0.20;0.20;;;;;;;;;;4931132;28;20055;-78
2023/01/20 02:19:49;;;;;;;0.20;0.20;;;;;;;;;;4934254;28;20101;-77
2023/01/20 02:22:20;;;;;;;0.20;0.20;;;;;;;;;;4932470;28;20050;-77
2023/01/20 02:24:46;;;;;;;0.20;0.20;;;;;;;;;;4931518;28;20046;-76
2023/01/20 02:27:22;;;;;;;0.10;0.10;;;;;;;;;;4924499;28;20401;-77
2023/01/20 02:29:51;;;;;;;0.17;0.17;;;;;;;;;;4924582;28;20169;-76
2023/01/20 02:32:41;;;;;;;0.20;0.20;;;;;;;;;;4929500;28;20143;-77
2023/01/20 02:35:21;;;;;;;0.20;0.20;;;;;;;;;;4901896;28;20050;-77
2023/01/20 02:37:51;;;;;;;0.20;0.20;;;;;;;;;;4928533;28;20213;-76
2023/01/20 02:40:25;;;;;;;0.20;0.20;;;;;;;;;;4932265;28;20051;-77
2023/01/20 02:42:57;;;;;;;0.20;0.20;;;;;;;;;;4930467;28;20157;-76
2023/01/20 02:45:26;;;;;;;0.20;0.20;;;;;;;;;;4932332;28;20047;-77
2023/01/20 02:48:18;;;;;;;0.10;0.10;;;;;;;;;;4927846;28;20137;-77
2023/01/20 02:51:06;;;;;;;0.20;0.20;;;;;;;;;;4892200;28;20246;-76
2023/01/20 02:53:37;;;;;;;0.20;0.20;;;;;;;;;;4928212;28;20116;-77
2023/01/20 02:56:03;;;;;;;0.20;0.20;;;;;;;;;;4929564;28;20130;-79
2023/01/20 02:58:41;;;;;;;0.20;0.20;;;;;;;;;;4929786;28;20395;-76
2023/01/20 03:01:13;;;;;;;0.20;0.20;;;;;;;;;;4932805;28;20121;-77
2023/01/20 03:03:41;;;;;;;0.20;0.20;;;;;;;;;;4929590;28;20050;-77
2023/01/20 03:06:10;;;;;;;0.20;0.20;;;;;;;;;;4929051;28;20050;-78
2023/01/20 03:08:36;;;;;;;0.20;0.20;;;;;;;;;;4929274;28;20341;-77
2023/01/20 03:11:04;;;;;;;0.20;0.20;;;;;;;;;;4930955;28;20050;-77
2023/01/20 03:13:39;;;;;;;0.20;0.20;;;;;;;;;;4928378;28;20087;-76
2023/01/20 03:16:10;;;;;;;0.15;0.15;;;;;;;;;;4915134;28;20051;-77
2023/01/20 03:18:37;;;;;;;0.20;0.20;;;;;;;;;;4921314;28;20058;-78
2023/01/20 03:21:04;;;;;;;0.20;0.20;;;;;;;;;;4933174;28;20062;-78
2023/01/20 03:23:31;;;;;;;0.20;0.20;;;;;;;;;;4930998;28;20495;-79
2023/01/20 03:25:58;;;;;;;0.20;0.20;;;;;;;;;;4929353;28;20051;-76
2023/01/20 03:28:24;;;;;;;0.20;0.20;;;;;;;;;;4924610;28;20046;-76
2023/01/20 03:30:51;;;;;;;0.20;0.20;;;;;;;;;;4931194;28;20057;-77
2023/01/20 03:33:17;;;;;;;0.20;0.20;;;;;;;;;;4926879;28;20054;-77
2023/01/20 03:35:43;;;;;;;0.10;0.10;;;;;;;;;;4930022;28;20058;-78
2023/01/20 03:38:10;;;;;;;0.20;0.20;;;;;;;;;;4932183;28;20055;-79
2023/01/20 03:40:47;;;;;;;0.20;0.20;;;;;;;;;;4931222;28;20051;-79
2023/01/20 03:43:21;;;;;;;0.17;0.17;;;;;;;;;;4928908;28;20105;-76
2023/01/20 03:45:56;;;;;;;0.20;0.20;;;;;;;;;;4924074;28;20050;-76
2023/01/20 03:48:25;;;;;;;0.10;0.10;;;;;;;;;;4928691;28;20865;-76
2023/01/20 03:50:54;;;;;;;0.20;0.20;;;;;;;;;;4929022;28;20601;-77
2023/01/20 03:53:30;;;;;;;0.20;0.20;;;;;;;;;;4925903;28;20051;-77
2023/01/20 03:56:05;;;;;;;0.20;0.20;;;;;;;;;;4923155;28;20816;-78
2023/01/20 03:58:34;;;;;;;0.20;0.20;;;;;;;;;;4927713;28;20043;-78
2023/01/20 04:01:03;;;;;;;0.20;0.20;;;;;;;;;;4928779;28;20085;-78
2023/01/20 04:03:30;;;;;;;0.20;0.20;;;;;;;;;;4929223;28;20050;-79
2023/01/20 04:05:57;;;;;;;0.10;0.10;;;;;;;;;;4931610;28;20042;-78
2023/01/20 04:08:26;;;;;;;0.17;0.17;;;;;;;;;;4932096;28;20656;-79
2023/01/20 04:10:52;;;;;;;0.10;0.10;;;;;;;;;;4927200;28;20922;-76
2023/01/20 04:13:18;;;;;;;0.20;0.20;;;;;;;;;;4924584;28;20064;-77
2023/01/20 04:15:45;;;;;;;0.15;0.15;;;;;;;;;;4926820;28;20315;-77
2023/01/20 04:18:15;;;;;;;0.20;0.20;;;;;;;;;;4927226;28;20077;-78
2023/01/20 04:20:42;;;;;;;0.10;0.10;;;;;;;;;;4917450;28;20051;-76
2023/01/20 04:23:11;;;;;;;0.17;0.17;;;;;;;;;;4922410;28;20539;-76
2023/01/20 04:25:38;;;;;;;0.20;0.20;;;;;;;;;;4930280;28;20146;-76
2023/01/20 04:28:04;;;;;;;0.10;0.10;;;;;;;;;;4924543;28;20451;-76
2023/01/20 04:30:30;;;;;;;0.20;0.20;;;;;;;;;;4927174;28;20204;-75
2023/01/20 04:32:56;;;;;;;0.15;0.15;;;;;;;;;;4929673;28;20055;-76
2023/01/20 04:35:22;;;;;;;0.10;0.10;;;;;;;;;;4928090;28;20224;-75
2023/01/20 04:37:48;;;;;;;0.13;0.13;;;;;;;;;;4929655;28;20129;-76
2023/01/20 04:40:14;;;;;;;0.20;0.20;;;;;;;;;;4930900;28;20061;-76
2023/01/20 04:42:40;;;;;;;0.10;0.10;;;;;;;;;;4923575;28;20354;-76
2023/01/20 04:45:06;;;;;;;0.20;0.20;;;;;;;;;;4919164;28;20078;-76
2023/01/20 04:47:32;;;;;;;0.20;0.20;;;;;;;;;;4929717;28;20047;-75
2023/01/20 04:49:58;;;;;;;0.10;0.10;;;;;;;;;;4927775;28;20043;-76
2023/01/20 04:52:25;;;;;;;0.20;0.20;;;;;;;;;;4930854;28;20077;-76
2023/01/20 04:54:51;;;;;;;0.20;0.20;;;;;;;;;;4935888;28;20047;-76
2023/01/20 04:57:17;;;;;;;0.20;0.20;;;;;;;;;;4930612;28;20062;-75
2023/01/20 04:59:43;;;;;;;0.20;0.20;;;;;;;;;;4933794;28;20051;-76
2023/01/20 05:02:09;;;;;;;0.20;0.20;;;;;;;;;;4935003;28;20068;-76
2023/01/20 05:04:36;;;;;;;0.17;0.17;;;;;;;;;;4933335;28;20500;-79
2023/01/20 05:07:02;;;;;;;0.20;0.20;;;;;;;;;;4929995;28;20054;-76
2023/01/20 05:09:28;;;;;;;0.20;0.20;;;;;;;;;;4934698;28;20828;-79
2023/01/20 05:11:54;;;;;;;0.15;0.15;;;;;;;;;;4932642;28;20137;-75
2023/01/20 05:14:20;;;;;;;0.20;0.20;;;;;;;;;;4932061;28;20994;-78
2023/01/20 05:16:46;;;;;;;0.13;0.13;;;;;;;;;;4932183;28;20054;-79
2023/01/20 05:19:13;;;;;;;0.20;0.20;;;;;;;;;;4929538;28;20133;-78
2023/01/20 05:21:39;;;;;;;0.15;0.15;;;;;;;;;;4931190;28;20140;-75
2023/01/20 05:24:05;;;;;;;0.20;0.20;;;;;;;;;;4932579;28;20581;-78
2023/01/20 05:26:32;;;;;;;0.10;0.10;;;;;;;;;;4917517;28;20205;-79
2023/01/20 05:28:58;;;;;;;0.10;0.10;;;;;;;;;;4923822;28;20403;-78
2023/01/20 05:31:24;;;;;;;0.20;0.20;;;;;;;;;;4928366;28;20121;-78
2023/01/20 05:33:50;;;;;;;0.20;0.20;;;;;;;;;;4931473;28;20050;-77
2023/01/20 05:36:16;;;;;;;0.20;0.20;;;;;;;;;;4929379;28;20414;-76
2023/01/20 05:38:42;;;;;;;0.20;0.20;;;;;;;;;;4931918;28;20701;-78
2023/01/20 05:41:09;;;;;;;0.10;0.10;;;;;;;;;;4930521;28;20046;-78
2023/01/20 05:43:35;;;;;;;0.17;0.17;;;;;;;;;;4931071;28;20046;-78
2023/01/20 05:46:01;;;;;;;0.10;0.10;;;;;;;;;;4928559;28;20101;-78
2023/01/20 05:48:27;;;;;;;0.20;0.20;;;;;;;;;;4928187;28;20051;-75
2023/01/20 05:50:53;;;;;;;0.10;0.10;;;;;;;;;;4931729;28;20913;-77
2023/01/20 05:53:19;;;;;;;0.10;0.10;;;;;;;;;;4927036;28;20613;-78
2023/01/20 05:55:45;;;;;;;0.17;0.17;;;;;;;;;;4927863;28;20086;-76
2023/01/20 05:58:12;;;;;;;0.20;0.20;;;;;;;;;;4925130;28;20074;-74
2023/01/20 06:00:38;;;;;;;0.13;0.13;;;;;;;;;;4927047;28;20047;-74
2023/01/20 06:03:04;;;;;;;0.10;0.10;;;;;;;;;;4927636;28;20054;-74
2023/01/20 06:05:30;;;;;;;0.10;0.10;;;;;;;;;;4928981;28;20039;-76
2023/01/20 06:07:57;;;;;;;0.17;0.17;;;;;;;;;;4926929;28;20070;-74
2023/01/20 06:10:24;;;;;;;0.20;0.20;;;;;;;;;;4928339;28;20082;-74
2023/01/20 06:12:53;;;;;;;0.20;0.20;;;;;;;;;;4930426;28;20117;-74
2023/01/20 06:15:20;;;;;;;0.20;0.20;;;;;;;;;;4912605;29;20276;-74
2023/01/20 06:17:46;;;;;;;0.20;0.20;;;;;;;;;;4922805;28;20599;-74
2023/01/20 06:20:12;;;;;;;0.20;0.20;;;;;;;;;;4930700;28;20065;-74
2023/01/20 06:22:38;;;;;;;0.10;0.10;;;;;;;;;;4937527;28;20113;-74
2023/01/20 06:25:04;;;;;;;0.20;0.20;;;;;;;;;;4929455;28;20210;-76
2023/01/20 06:27:30;;;;;;;0.20;0.20;;;;;;;;;;4932032;28;20050;-76
2023/01/20 06:29:56;;;;;;;0.20;0.20;;;;;;;;;;4930352;28;21744;-73
2023/01/20 06:32:22;;;;;;;0.10;0.10;;;;;;;;;;4928924;28;20426;-75
2023/01/20 06:34:48;;;;;;;0.10;0.10;;;;;;;;;;4930202;28;21049;-75
2023/01/20 06:37:14;;;;;;;0.10;0.10;;;;;;;;;;4930345;28;20454;-75
2023/01/20 06:39:40;;;;;;;0.20;0.20;;;;;;;;;;4930760;28;20910;-74
2023/01/20 06:42:06;;;;;;;0.20;0.20;;;;;;;;;;4930015;28;20158;-75
2023/01/20 06:44:33;;;;;;;0.20;0.20;;;;;;;;;;4919905;28;20849;-74
2023/01/20 06:46:59;;;;;;;0.17;0.17;;;;;;;;;;4931236;28;20810;-74
2023/01/20 06:49:25;;;;;;;0.20;0.20;;;;;;;;;;4930623;28;20061;-75
2023/01/20 06:51:51;;;;;;;0.20;0.20;;;;;;;;;;4927834;28;20051;-75
2023/01/20 06:54:17;;;;;;;0.20;0.20;;;;;;;;;;4933189;28;20506;-75
2023/01/20 06:56:44;;;;;;;0.20;0.20;;;;;;;;;;4928413;28;20043;-75
2023/01/20 06:59:10;;;;;;;0.20;0.20;;;;;;;;;;4927328;28;20046;-69
2023/01/20 07:01:36;;;;;;;0.20;0.20;;;;;;;;;;4929794;28;20149;-69
2023/01/20 07:04:02;;;;;;;0.20;0.20;;;;;;;;;;4925235;28;20493;-71
2023/01/20 07:06:28;;;;;;;0.20;0.20;;;;;;;;;;4931992;28;20051;-70
2023/01/20 07:08:55;;;;;;;0.20;0.20;;;;;;;;;;4929603;28;20138;-69
2023/01/20 07:11:21;;;;;;;0.20;0.20;;;;;;;;;;4928354;28;20178;-69
2023/01/20 07:13:47;;;;;;;0.20;0.20;;;;;;;;;;4926223;28;20045;-69
2023/01/20 07:16:13;;;;;;;0.20;0.20;;;;;;;;;;4927919;28;20042;-69
2023/01/20 07:18:39;;;;;;;0.10;0.10;;;;;;;;;;4920680;28;20058;-70
2023/01/20 07:21:06;;;;;;;0.10;0.10;;;;;;;;;;4928967;28;20047;-70
2023/01/20 07:23:32;;;;;;;0.10;0.10;;;;;;;;;;4923592;28;20148;-69
2023/01/20 07:25:59;;;;;;;0.20;0.20;;;;;;;;;;4924193;28;20050;-70
2023/01/20 07:28:25;;;;;;;0.20;0.20;;;;;;;;;;4926303;28;20077;-71
2023/01/20 07:30:51;;;;;;;0.20;0.20;;;;;;;;;;4928533;28;20470;-70
2023/01/20 07:33:17;;;;;;;0.20;0.20;;;;;;;;;;4927222;28;20046;-71
2023/01/20 07:35:43;;;;;;;0.17;0.17;;;;;;;;;;4928288;28;20046;-72
2023/01/20 07:38:09;;;;;;;0.20;0.20;;;;;;;;;;4925594;28;20057;-71
2023/01/20 07:40:35;;;;;;;0.20;0.20;;;;;;;;;;4930627;28;20299;-71
2023/01/20 07:43:04;;;;;;;0.13;0.13;;;;;;;;;;4930287;28;20158;-71
2023/01/20 07:45:30;;;;;;;0.20;0.20;;;;;;;;;;4932338;28;20529;-71
2023/01/20 07:47:56;;;;;;;0.10;0.10;;;;;;;;;;4930480;28;20394;-70
2023/01/20 07:50:23;;;;;;;0.20;0.20;;;;;;;;;;4926327;28;20042;-70
2023/01/20 07:52:49;;;;;;;0.13;0.13;;;;;;;;;;4930175;28;20133;-72
2023/01/20 07:55:15;;;;;;;0.20;0.20;;;;;;;;;;4923430;28;20145;-70
2023/01/20 07:57:41;;;;;;;0.20;0.20;;;;;;;;;;4919975;28;20062;-69
2023/01/20 08:00:07;;;;;;;0.20;0.20;;;;;;;;;;4920680;28;20063;-70
2023/01/20 08:02:39;;;;;;;0.10;0.10;;;;;;;;;;4924447;28;20053;-70
2023/01/20 08:05:06;;;;;;;0.20;0.20;;;;;;;;;;4927263;28;20639;-73
2023/01/20 08:07:32;;;;;;;0.20;0.20;;;;;;;;;;4927555;28;20065;-70
2023/01/20 08:09:58;;;;;;;0.10;0.10;;;;;;;;;;4932296;28;20050;-70
2023/01/20 08:12:24;;;;;;;0.10;0.10;;;;;;;;;;4928938;28;20046;-72
2023/01/20 08:14:50;;;;;;;0.10;0.10;;;;;;;;;;4927233;28;20574;-70
2023/01/20 08:17:16;;;;;;;0.10;0.10;;;;;;;;;;4930330;28;20112;-69
2023/01/20 08:19:42;;;;;;;0.20;0.20;;;;;;;;;;4930501;28;20062;-69
2023/01/20 08:22:08;;;;;;;0.20;0.20;;;;;;;;;;4922576;28;20047;-70
2023/01/20 08:24:34;;;;;;;0.20;0.20;;;;;;;;;;4931678;28;20050;-69
2023/01/20 08:27:00;;;;;;;0.20;0.20;;;;;;;;;;4932702;28;20054;-70
2023/01/20 08:29:26;;;;;;;0.20;0.20;;;;;;;;;;4915140;28;20563;-70
2023/01/20 08:31:52;;;;;;;0.20;0.20;;;;;;;;;;4925987;28;20868;-71
2023/01/20 08:34:19;;;;;;;0.10;0.10;;;;;;;;;;4935210;28;20910;-70
2023/01/20 08:36:47;;;;;;;0.17;0.17;;;;;;;;;;4930690;28;20666;-70
2023/01/20 08:39:17;;;;;;;0.17;0.17;;;;;;;;;;4930015;28;20415;-71
2023/01/20 08:41:43;;;;;;;0.20;0.20;;;;;;;;;;4933983;28;20121;-71
2023/01/20 08:44:10;;;;;;;0.10;0.10;;;;;;;;;;4928534;28;20177;-70
2023/01/20 08:46:37;;;;;;;0.10;0.10;;;;;;;;;;4933915;28;20048;-69
2023/01/20 08:49:06;;;;;;;0.20;0.20;;;;;;;;;;4933145;28;20057;-70
2023/01/20 08:51:32;;;;;;;0.20;0.20;;;;;;;;;;4933610;28;20042;-69
2023/01/20 08:53:59;;;;;;;0.10;0.10;;;;;;;;;;4933203;28;20486;-70
2023/01/20 08:56:25;;;;;;;0.20;0.20;;;;;;;;;;4932222;28;20055;-70
2023/01/20 08:58:52;;;;;;;0.20;0.20;;;;;;;;;;4933405;28;20054;-70
2023/01/20 09:01:20;;;;;;;0.20;0.20;;;;;;;;;;4929826;28;20463;-72
2023/01/20 09:03:46;;;;;;;0.20;0.20;;;;;;;;;;4933104;28;20054;-72
2023/01/20 09:06:13;;;;;;;0.10;0.10;;;;;;;;;;4936953;28;20339;-70
2023/01/20 09:08:39;;;;;;;0.20;0.20;;;;;;;;;;4931954;28;20170;-70
2023/01/20 09:11:06;;;;;;;0.20;0.20;;;;;;;;;;4935324;28;20055;-70
2023/01/20 09:13:35;;;;;;;0.10;0.10;;;;;;;;;;4931697;28;20066;-70
2023/01/20 09:16:02;;;;;;;0.20;0.20;;;;;;;;;;4933643;28;20180;-70
2023/01/20 09:18:29;;;;;;;0.20;0.20;;;;;;;;;;4929927;28;20074;-70
2023/01/20 09:20:57;;;;;;;0.20;0.20;;;;;;;;;;4932532;28;20493;-70
2023/01/20 09:23:23;;;;;;;0.20;0.20;;;;;;;;;;4927917;28;20088;-71
2023/01/20 09:25:49;;;;;;;0.20;0.20;;;;;;;;;;4931549;28;20043;-70
2023/01/20 09:28:15;;;;;;;0.20;0.20;;;;;;;;;;4923063;28;20103;-70
2023/01/20 09:30:42;;;;;;;0.10;0.10;;;;;;;;;;4920053;28;20307;-70
2023/01/20 09:33:11;;;;;;;0.20;0.20;;;;;;;;;;4928596;28;20525;-71
2023/01/20 09:35:37;;;;;;;0.20;0.20;;;;;;;;;;4930453;28;20061;-72
2023/01/20 09:44:02;;;;;;;0.20;0.20;;;;;;;;;;4927586;28;20090;-70
2023/01/20 09:46:43;;;;;;;0.20;0.20;;;;;;;;;;4931898;28;20046;-70
2023/01/20 09:55:07;;;;;;;0.10;0.10;;;;;;;;;;4926332;28;20559;-71
2023/01/20 09:57:35;;;;;;;0.17;0.17;;;;;;;;;;4931258;28;20055;-72
2023/01/20 10:00:21;;;;;;;0.20;0.20;;;;;;;;;;4929062;28;20074;-73
2023/01/20 10:02:50;;;;;;;0.20;0.20;;;;;;;;;;4930601;28;20169;-72
2023/01/20 10:05:19;;;;;;;0.20;0.20;;;;;;;;;;4931018;28;20051;-72
2023/01/20 10:07:57;;;;;;;0.20;0.20;;;;;;;;;;4928037;28;20070;-71
2023/01/20 10:10:37;;;;;;;0.20;0.20;;;;;;;;;;4931263;28;20051;-68
2023/01/20 10:13:07;;;;;;;0.20;0.20;;;;;;;;;;4931963;28;20062;-71
2023/01/20 10:15:35;;;;;;;0.20;0.20;;;;;;;;;;4912459;28;20067;-71
2023/01/20 10:18:06;;;;;;;0.20;0.20;;;;;;;;;;4922180;28;20541;-70
2023/01/20 10:20:38;;;;;;;0.20;0.20;;;;;;;;;;4927726;28;21054;-70
2023/01/20 10:23:10;;;;;;;0.20;0.20;;;;;;;;;;4929912;28;20089;-70
2023/01/20 10:26:09;;;;;;;0.17;0.17;;;;;;;;;;4930434;28;20047;-70
2023/01/20 10:28:43;;;;;;;0.20;0.20;;;;;;;;;;4881388;28;20530;-70
2023/01/20 10:31:12;;;;;;;0.10;0.10;;;;;;;;;;4915803;28;20439;-70
2023/01/20 10:33:43;;;;;;;0.20;0.20;;;;;;;;;;4932073;28;20125;-70
2023/01/20 10:36:19;;;;;;;0.20;0.20;;;;;;;;;;4928622;28;20817;-72
2023/01/20 10:38:45;;;;;;;0.20;0.20;;;;;;;;;;4932449;28;20388;-70
2023/01/20 10:41:37;;;;;;;0.20;0.20;;;;;;;;;;4930139;28;20082;-70
2023/01/20 10:44:09;;;;;;;0.10;0.10;;;;;;;;;;4917890;28;20059;-72
2023/01/20 10:46:53;;;;;;;0.13;0.13;;;;;;;;;;4925952;28;20043;-70
2023/01/20 10:49:28;;;;;;;0.20;0.20;;;;;;;;;;4926810;28;20580;-70
2023/01/20 10:52:01;;;;;;;0.20;0.20;;;;;;;;;;4931973;28;20678;-70
2023/01/20 10:54:37;;;;;;;0.20;0.20;;;;;;;;;;4928826;28;20054;-70
2023/01/20 10:57:04;;;;;;;0.20;0.20;;;;;;;;;;4931290;28;20154;-70
2023/01/20 10:59:33;;;;;;;0.20;0.20;;;;;;;;;;4932404;28;20312;-70
2023/01/20 11:02:14;;;;;;;0.20;0.20;;;;;;;;;;4928603;28;20054;-70
2023/01/20 11:04:41;;;;;;;0.20;0.20;;;;;;;;;;4927513;28;20054;-70
2023/01/20 11:07:14;;;;;;;0.20;0.20;;;;;;;;;;4927506;28;20411;-72
2023/01/20 11:09:41;;;;;;;0.10;0.10;;;;;;;;;;4927151;28;20043;-72
2023/01/20 11:12:13;;;;;;;0.20;0.20;;;;;;;;;;4930172;28;20406;-72
2023/01/20 11:14:40;;;;;;;0.20;0.20;;;;;;;;;;4932758;28;20054;-71
2023/01/20 11:17:07;;;;;;;0.20;0.20;;;;;;;;;;4929629;28;20566;-70
2023/01/20 11:19:49;;;;;;;0.20;0.20;;;;;;;;;;4929271;28;20066;-70
2023/01/20 11:22:36;;;;;;;0.20;0.20;;;;;;;;;;4929998;28;20055;-70
2023/01/20 11:25:03;;;;;;;0.10;0.10;;;;;;;;;;4928054;28;20039;-70
2023/01/20 11:27:40;;;;;;;0.20;0.20;;;;;;;;;;4929417;28;20059;-71
2023/01/20 11:30:18;;;;;;;0.13;0.13;;;;;;;;;;4925562;28;20384;-73
2023/01/20 11:32:44;;;;;;;0.20;0.20;;;;;;;;;;4915988;28;20715;-71
2023/01/20 11:35:24;;;;;;;0.20;0.20;;;;;;;;;;4923392;28;20054;-70
2023/01/20 11:37:50;;;;;;;0.20;0.20;;;;;;;;;;4916669;28;20197;-70
2023/01/20 11:40:19;;;;;;;0.17;0.17;;;;;;;;;;4929121;28;20063;-71
2023/01/20 11:42:46;;;;;;;0.20;0.20;;;;;;;;;;4925103;28;20602;-71
2023/01/20 11:45:23;;;;;;;0.20;0.20;;;;;;;;;;4926987;28;20059;-72
2023/01/20 11:48:02;;;;;;;0.20;0.20;;;;;;;;;;4927639;28;20038;-70
2023/01/20 11:50:32;;;;;;;0.20;0.20;;;;;;;;;;4931658;28;20050;-69
2023/01/20 11:53:12;;;;;;;0.13;0.13;;;;;;;;;;4930223;28;20746;-70
2023/01/20 11:55:55;;;;;;;0.20;0.20;;;;;;;;;;4931924;28;20055;-70
2023/01/20 11:58:25;;;;;;;0.20;0.20;;;;;;;;;;4929229;28;20050;-72
2023/01/20 12:01:02;;;;;;;0.10;0.10;;;;;;;;;;4932770;28;20065;-71
2023/01/20 12:03:43;;;;;;;0.20;0.20;;;;;;;;;;4931358;28;20557;-72
2023/01/20 12:06:16;;;;;;;0.20;0.20;;;;;;;;;;4932647;28;20157;-71
2023/01/20 12:08:48;;;;;;;0.20;0.20;;;;;;;;;;4932455;28;20050;-71
2023/01/20 12:11:27;;;;;;;0.10;0.10;;;;;;;;;;4934240;28;20142;-71
2023/01/20 12:14:19;;;;;;;0.20;0.20;;;;;;;;;;4930009;28;20622;-71
2023/01/20 12:16:47;;;;;;;0.20;0.20;;;;;;;;;;4920843;28;20442;-71
2023/01/20 12:19:15;;;;;;;0.20;0.20;;;;;;;;;;4929415;28;20145;-71
2023/01/20 12:21:43;;;;;;;0.20;0.20;;;;;;;;;;4931880;28;20043;-69
2023/01/20 12:24:15;;;;;;;0.20;0.20;;;;;;;;;;4929981;28;20149;-69
2023/01/20 12:26:42;;;;;;;0.10;0.10;;;;;;;;;;4928928;28;20047;-72
2023/01/20 12:29:21;;;;;;;0.20;0.20;;;;;;;;;;4932654;28;20050;-72
2023/01/20 12:31:47;;;;;;;0.10;0.10;;;;;;;;;;4921658;28;20435;-72
2023/01/20 12:34:23;;;;;;;0.10;0.10;;;;;;;;;;4930265;28;20066;-72
2023/01/20 12:37:08;;;;;;;0.10;0.10;;;;;;;;;;4926516;28;20054;-71
2023/01/20 12:39:34;;;;;;;0.20;0.20;;;;;;;;;;4944866;28;20414;-72
2023/01/20 12:42:00;;;;;;;0.10;0.10;;;;;;;;;;4930918;28;20054;-72
2023/01/20 12:44:31;;;;;;;0.20;0.20;;;;;;;;;;4929076;28;20132;-72
2023/01/20 12:47:04;;;;;;;0.20;0.20;;;;;;;;;;4930862;28;20600;-72
2023/01/20 12:49:36;;;;;;;0.20;0.20;;;;;;;;;;4931158;28;20051;-69
2023/01/20 12:52:20;;;;;;;0.20;0.20;;;;;;;;;;4930714;28;20340;-70
2023/01/20 12:55:05;;;;;;;0.20;0.20;;;;;;;;;;4919517;28;20058;-70
2023/01/20 12:57:50;;;;;;;0.10;0.10;;;;;;;;;;4928115;28;20465;-72
2023/01/20 13:00:22;;;;;;;0.20;0.20;;;;;;;;;;4928674;28;20055;-71
2023/01/20 13:02:51;;;;;;;0.10;0.10;;;;;;;;;;4927738;28;20090;-71
2023/01/20 13:05:24;;;;;;;0.13;0.13;;;;;;;;;;4931691;28;20486;-70
2023/01/20 13:08:05;;;;;;;0.20;0.20;;;;;;;;;;4935960;28;20047;-70
2023/01/20 13:10:50;;;;;;;0.20;0.20;;;;;;;;;;4934963;28;20089;-69
2023/01/20 13:13:17;;;;;;;0.10;0.10;;;;;;;;;;4932557;28;20157;-72
2023/01/20 13:15:53;;;;;;;0.10;0.10;;;;;;;;;;4931597;28;20050;-70
2023/01/20 13:18:34;;;;;;;0.20;0.20;;;;;;;;;;4924335;28;20590;-70
2023/01/20 13:21:00;;;;;;;0.20;0.20;;;;;;;;;;4924701;28;20158;-70
2023/01/20 13:23:28;;;;;;;0.10;0.10;;;;;;;;;;4935097;28;20046;-70
2023/01/20 13:25:55;;;;;;;0.20;0.20;;;;;;;;;;4929751;28;20050;-70
2023/01/20 13:28:23;;;;;;;0.20;0.20;;;;;;;;;;4930430;28;20482;-72
2023/01/20 13:30:50;;;;;;;0.13;0.13;;;;;;;;;;4929972;28;20042;-70
2023/01/20 13:33:16;;;;;;;0.17;0.17;;;;;;;;;;4915443;28;20074;-70
2023/01/20 13:35:46;;;;;;;0.10;0.10;;;;;;;;;;4928478;28;20058;-69
2023/01/20 13:38:23;;;;;;;0.20;0.20;;;;;;;;;;4929146;28;20072;-70
2023/01/20 13:40:49;;;;;;;0.20;0.20;;;;;;;;;;4931559;28;20609;-69
2023/01/20 13:43:25;;;;;;;0.20;0.20;;;;;;;;;;4927151;28;20368;-71
2023/01/20 13:46:03;;;;;;;0.20;0.20;;;;;;;;;;4929031;28;20051;-71
2023/01/20 13:48:34;;;;;;;0.20;0.20;;;;;;;;;;4929232;28;20695;-71
2023/01/20 13:51:18;;;;;;;0.10;0.10;;;;;;;;;;4928499;28;20050;-70
2023/01/20 13:53:44;;;;;;;0.10;0.10;;;;;;;;;;4931018;28;20131;-71
2023/01/20 13:56:26;;;;;;;0.20;0.20;;;;;;;;;;4928666;28;20502;-69
2023/01/20 13:58:53;;;;;;;0.20;0.20;;;;;;;;;;4930938;28;20046;-70
2023/01/20 14:01:19;;;;;;;0.13;0.13;;;;;;;;;;4929760;28;20047;-70
2023/01/20 14:04:00;;;;;;;0.10;0.10;;;;;;;;;;4929228;28;20046;-70
2023/01/20 14:06:27;;;;;;;;;;;;;;;;;;4921992;28;20039;-73
2023/01/20 14:08:53;;;;;;;0.20;0.20;;;;;;;;;;4926339;28;20048;-70
2023/01/20 14:11:21;;;;;;;0.20;0.20;;;;;;;;;;4930498;28;21974;-71
2023/01/20 14:13:52;;;;;;;0.20;0.20;;;;;;;;;;4931006;28;20143;-70
2023/01/20 14:16:28;;;;;;;0.10;0.10;;;;;;;;;;4928850;28;20053;-71
2023/01/20 14:18:55;;;;;;;0.20;0.20;;;;;;;;;;4929683;28;20058;-71
2023/01/20 14:21:23;;;;;;;0.10;0.10;;;;;;;;;;4930452;28;20045;-70
2023/01/20 14:23:50;;;;;;;0.10;0.10;;;;;;;;;;4925556;28;20491;-70
2023/01/20 14:26:24;;;;;;;0.20;0.20;;;;;;;;;;4926048;28;20403;-70
2023/01/20 14:28:51;;;;;;;0.10;0.10;;;;;;;;;;4927446;28;20050;-72
2023/01/20 14:31:19;;;;;;;0.20;0.20;;;;;;;;;;4931782;28;20294;-70
2023/01/20 14:33:51;;;;;;;0.15;0.15;;;;;;;;;;4928368;28;20327;-70
2023/01/20 14:36:18;;;;;;;0.20;0.20;;;;;;;;;;4930207;28;20051;-70
2023/01/20 14:38:48;;;;;;;0.13;0.13;;;;;;;;;;4931781;28;20078;-72
2023/01/20 14:41:43;;;;;;;0.20;0.20;;;;;;;;;;4929385;28;20387;-72
2023/01/20 14:44:14;;;;;;;0.20;0.20;;;;;;;;;;4843866;28;20120;-72
2023/01/20 14:46:41;;;;;;;0.10;0.10;;;;;;;;;;4924636;28;20075;-70
2023/01/20 14:49:07;;;;;;;0.20;0.20;;;;;;;;;;4921652;28;20051;-69
2023/01/20 14:51:33;;;;;;;0.10;0.10;;;;;;;;;;4929635;28;20070;-72
2023/01/20 14:54:17;;;;;;;0.15;0.15;;;;;;;;;;4931252;28;20057;-70
2023/01/20 14:56:47;;;;;;;0.13;0.13;;;;;;;;;;4925917;28;20154;-71
2023/01/20 14:59:18;;;;;;;0.20;0.20;;;;;;;;;;4926876;28;20854;-70
2023/01/20 15:01:49;;;;;;;0.20;0.20;;;;;;;;;;4927411;28;20577;-70
2023/01/20 15:04:15;;;;;;;0.10;0.10;;;;;;;;;;4931143;28;20404;-70
2023/01/20 15:06:41;;;;;;;0.20;0.20;;;;;;;;;;4930534;28;20145;-70
2023/01/20 15:09:25;;;;;;;0.20;0.20;;;;;;;;;;4932070;28;20361;-70